createdAt,value
2018-07-30T00:00:08.797Z,51.22
2018-07-30T00:02:44.662Z,51.69
2018-07-30T00:05:14.029Z,51.97
2018-07-30T00:07:43.552Z,52.00
2018-07-30T00:10:12.898Z,51.25
2018-07-30T00:12:42.274Z,51.38
2018-07-30T00:15:11.563Z,51.55
2018-07-30T00:17:40.879Z,52.46
2018-07-30T00:20:10.232Z,52.20
2018-07-30T00:22:39.520Z,52.57
2018-07-30T00:25:09.383Z,51.84
2018-07-30T00:27:38.716Z,51.37
2018-07-30T00:30:08.070Z,52.00
2018-07-30T00:32:37.446Z,51.06
2018-07-30T00:35:06.739Z,50.60
2018-07-30T00:37:36.018Z,51.73
2018-07-30T00:40:15.039Z,51.51
2018-07-30T00:42:46.788Z,51.88
2018-07-30T00:45:16.449Z,52.66
2018-07-30T00:47:45.817Z,53.92
2018-07-30T00:50:14.923Z,54.14
2018-07-30T00:52:44.313Z,53.84
2018-07-30T00:55:13.619Z,53.14
2018-07-30T00:57:42.985Z,54.32
2018-07-30T01:00:12.838Z,53.45
2018-07-30T01:02:42.169Z,53.17
2018-07-30T01:05:11.554Z,53.15
2018-07-30T01:07:40.841Z,53.94
2018-07-30T01:10:10.181Z,52.80
2018-07-30T01:12:39.510Z,53.22
2018-07-30T01:15:08.832Z,52.33
2018-07-30T01:17:38.184Z,53.58
2018-07-30T01:20:07.502Z,54.28
2018-07-30T01:22:37.395Z,53.39
2018-07-30T01:25:06.765Z,53.39
2018-07-30T01:27:36.026Z,53.11
2018-07-30T01:30:05.993Z,53.78
2018-07-30T01:32:35.263Z,54.67
2018-07-30T01:35:04.532Z,54.42
2018-07-30T01:37:33.882Z,54.00
2018-07-30T01:40:03.191Z,53.78
2018-07-30T01:42:32.474Z,53.58
2018-07-30T01:45:02.091Z,54.33
2018-07-30T01:47:31.400Z,53.12
2018-07-30T01:50:00.740Z,53.40
2018-07-30T01:52:30.078Z,53.21
2018-07-30T01:54:59.398Z,53.90
2018-07-30T01:57:28.695Z,54.13
2018-07-30T01:59:58.041Z,54.33
2018-07-30T02:02:27.369Z,54.25
2018-07-30T02:04:59.714Z,53.56
2018-07-30T02:07:29.029Z,53.98
2018-07-30T02:09:58.373Z,53.91
2018-07-30T02:12:27.677Z,53.18
2018-07-30T02:14:56.975Z,53.83
2018-07-30T02:17:26.241Z,53.73
2018-07-30T02:19:55.609Z,53.34
2018-07-30T02:22:24.910Z,53.69
2018-07-30T02:24:54.554Z,53.46
2018-07-30T02:27:24.210Z,53.17
2018-07-30T02:29:53.551Z,54.19
2018-07-30T02:32:22.929Z,53.62
2018-07-30T02:34:52.270Z,54.19
2018-07-30T02:37:21.564Z,54.15
2018-07-30T02:39:50.875Z,54.08
2018-07-30T02:42:20.321Z,53.19
2018-07-30T02:44:49.624Z,53.81
2018-07-30T02:47:18.879Z,54.05
2018-07-30T02:49:48.481Z,54.31
2018-07-30T02:52:17.775Z,53.96
2018-07-30T02:54:47.084Z,54.10
2018-07-30T02:57:16.521Z,54.26
2018-07-30T02:59:46.432Z,55.21
2018-07-30T03:02:15.761Z,54.92
2018-07-30T03:04:45.070Z,55.01
2018-07-30T03:07:14.373Z,55.50
2018-07-30T03:09:43.655Z,54.58
2018-07-30T03:12:13.589Z,54.93
2018-07-30T03:14:42.871Z,55.58
2018-07-30T03:17:12.153Z,55.13
2018-07-30T03:19:41.463Z,55.62
2018-07-30T03:22:10.780Z,55.98
2018-07-30T03:24:40.106Z,55.85
2018-07-30T03:27:09.461Z,54.81
2018-07-30T03:29:38.782Z,55.62
2018-07-30T03:32:08.195Z,55.69
2018-07-30T03:34:37.897Z,55.62
2018-07-30T03:37:07.174Z,55.55
2018-07-30T03:39:36.443Z,55.80
2018-07-30T03:42:06.046Z,55.87
2018-07-30T03:44:35.356Z,55.49
2018-07-30T03:47:04.615Z,56.08
2018-07-30T03:49:33.941Z,55.79
2018-07-30T03:52:03.254Z,55.50
2018-07-30T03:54:32.543Z,55.08
2018-07-30T03:57:02.150Z,55.80
2018-07-30T03:59:31.464Z,56.06
2018-07-30T04:02:01.155Z,55.52
2018-07-30T04:04:30.459Z,54.75
2018-07-30T04:06:59.898Z,55.18
2018-07-30T04:09:29.187Z,55.25
2018-07-30T04:11:58.877Z,55.79
2018-07-30T04:14:28.204Z,55.34
2018-07-30T04:16:57.498Z,56.09
2018-07-30T04:19:28.090Z,57.22
2018-07-30T04:21:58.009Z,56.93
2018-07-30T04:24:27.299Z,56.88
2018-07-30T04:26:56.585Z,56.97
2018-07-30T04:29:25.905Z,56.19
2018-07-30T04:31:55.188Z,55.17
2018-07-30T04:34:24.470Z,54.53
2018-07-30T04:36:53.724Z,54.60
2018-07-30T04:39:23.071Z,54.51
2018-07-30T04:41:52.472Z,53.78
2018-07-30T04:44:21.773Z,53.42
2018-07-30T04:46:51.181Z,53.75
2018-07-30T04:49:20.634Z,53.33
2018-07-30T04:51:49.937Z,53.61
2018-07-30T04:54:19.246Z,52.27
2018-07-30T04:56:48.548Z,52.40
2018-07-30T04:59:17.848Z,52.86
2018-07-30T05:01:47.216Z,52.43
2018-07-30T05:04:17.244Z,51.33
2018-07-30T05:06:46.509Z,51.19
2018-07-30T05:09:15.836Z,51.15
2018-07-30T05:11:45.142Z,50.10
2018-07-30T05:14:14.402Z,50.67
2018-07-30T05:16:43.688Z,50.39
2018-07-30T05:19:13.008Z,50.70
2018-07-30T05:21:42.737Z,50.43
2018-07-30T05:24:12.057Z,50.62
2018-07-30T05:26:41.795Z,49.41
2018-07-30T05:29:11.089Z,49.93
2018-07-30T05:31:40.353Z,50.44
2018-07-30T05:34:09.680Z,49.20
2018-07-30T05:36:38.966Z,49.48
2018-07-30T05:39:10.380Z,49.48
2018-07-30T05:41:39.662Z,50.35
2018-07-30T05:44:09.031Z,50.94
2018-07-30T05:46:38.827Z,51.17
2018-07-30T05:49:08.105Z,51.60
2018-07-30T05:51:37.363Z,51.04
2018-07-30T05:54:06.712Z,50.96
2018-07-30T05:56:36.012Z,50.30
2018-07-30T05:59:05.366Z,51.55
2018-07-30T06:01:34.689Z,51.75
2018-07-30T06:04:04.009Z,52.70
2018-07-30T06:06:33.307Z,52.32
2018-07-30T06:09:03.185Z,52.03
2018-07-30T06:11:32.450Z,51.01
2018-07-30T06:14:01.736Z,51.73
2018-07-30T06:16:31.059Z,50.98
2018-07-30T06:19:00.323Z,50.99
2018-07-30T06:21:29.633Z,49.77
2018-07-30T06:23:58.915Z,49.26
2018-07-30T06:26:28.288Z,49.20
2018-07-30T06:28:57.624Z,48.41
2018-07-30T06:31:27.502Z,48.94
2018-07-30T06:33:56.851Z,49.80
2018-07-30T06:36:26.154Z,48.82
2018-07-30T06:38:55.569Z,48.92
2018-07-30T06:41:24.878Z,49.20
2018-07-30T06:43:54.224Z,48.64
2018-07-30T06:46:23.515Z,48.97
2018-07-30T06:48:53.953Z,48.36
2018-07-30T06:51:23.330Z,47.91
2018-07-30T06:53:52.759Z,47.16
2018-07-30T06:56:21.992Z,47.04
2018-07-30T06:58:51.361Z,46.43
2018-07-30T07:01:20.706Z,46.05
2018-07-30T07:03:50.029Z,46.43
2018-07-30T07:06:19.480Z,46.42
2018-07-30T07:08:48.851Z,46.52
2018-07-30T07:11:18.177Z,46.78
2018-07-30T07:13:47.485Z,45.15
2018-07-30T07:16:17.179Z,44.31
2018-07-30T07:18:46.559Z,43.24
2018-07-30T07:21:16.853Z,43.05
2018-07-30T07:23:46.171Z,41.50
2018-07-30T07:26:15.433Z,40.18
2018-07-30T07:28:44.772Z,40.21
2018-07-30T07:31:14.078Z,40.06
2018-07-30T07:33:43.387Z,38.85
2018-07-30T07:36:12.695Z,39.04
2018-07-30T07:38:42.262Z,39.26
2018-07-30T07:41:12.443Z,39.76
2018-07-30T07:43:41.827Z,39.37
2018-07-30T07:46:11.198Z,38.51
2018-07-30T07:48:40.519Z,38.94
2018-07-30T07:51:10.017Z,39.40
2018-07-30T07:53:39.278Z,38.39
2018-07-30T07:56:08.649Z,37.87
2018-07-30T07:58:38.043Z,36.68
2018-07-30T08:01:07.517Z,36.41
2018-07-30T08:03:43.583Z,35.94
2018-07-30T08:06:12.878Z,36.62
2018-07-30T08:08:42.193Z,35.81
2018-07-30T08:11:11.480Z,34.72
2018-07-30T08:13:40.780Z,35.08
2018-07-30T08:16:10.113Z,33.97
2018-07-30T08:18:39.414Z,32.77
2018-07-30T08:21:09.232Z,32.70
2018-07-30T08:23:38.530Z,32.47
2018-07-30T08:26:07.851Z,32.65
2018-07-30T08:28:37.199Z,32.80
2018-07-30T08:31:06.868Z,32.64
2018-07-30T08:33:36.187Z,33.26
2018-07-30T08:36:05.519Z,33.37
2018-07-30T08:38:34.760Z,32.94
2018-07-30T08:41:04.086Z,31.71
2018-07-30T08:43:33.525Z,32.04
2018-07-30T08:46:02.790Z,31.14
2018-07-30T08:48:32.095Z,32.23
2018-07-30T08:51:01.401Z,32.58
2018-07-30T08:53:30.751Z,32.02
2018-07-30T08:56:00.092Z,30.84
2018-07-30T08:58:29.445Z,30.70
2018-07-30T09:00:58.741Z,28.88
2018-07-30T09:03:28.126Z,29.40
2018-07-30T09:05:57.572Z,29.09
2018-07-30T09:08:26.891Z,28.60
2018-07-30T09:10:56.211Z,28.29
2018-07-30T09:13:25.780Z,27.80
2018-07-30T09:15:55.124Z,26.54
2018-07-30T09:18:24.506Z,26.42
2018-07-30T09:20:53.991Z,26.68
2018-07-30T09:23:23.294Z,26.33
2018-07-30T09:25:52.634Z,26.60
2018-07-30T09:28:22.223Z,25.57
2018-07-30T09:30:51.523Z,25.56
2018-07-30T09:33:20.867Z,24.25
2018-07-30T09:35:50.214Z,24.42
2018-07-30T09:38:19.454Z,23.67
2018-07-30T09:40:48.783Z,24.20
2018-07-30T09:43:18.239Z,24.29
2018-07-30T09:45:47.678Z,24.66
2018-07-30T09:48:16.996Z,25.23
2018-07-30T09:50:46.599Z,24.94
2018-07-30T09:53:16.637Z,24.48
2018-07-30T09:55:45.994Z,25.08
2018-07-30T09:58:15.302Z,24.98
2018-07-30T10:00:49.965Z,24.77
2018-07-30T10:03:19.280Z,25.14
2018-07-30T10:05:48.595Z,24.93
2018-07-30T10:08:17.882Z,25.35
2018-07-30T10:10:47.704Z,25.44
2018-07-30T10:13:17.005Z,25.29
2018-07-30T10:15:46.084Z,25.98
2018-07-30T10:18:15.751Z,25.88
2018-07-30T10:20:44.775Z,25.57
2018-07-30T10:23:14.351Z,25.78
2018-07-30T10:25:43.683Z,25.92
2018-07-30T10:28:12.981Z,25.49
2018-07-30T10:30:42.349Z,24.70
2018-07-30T10:33:11.689Z,24.52
2018-07-30T10:35:40.971Z,23.58
2018-07-30T10:38:10.440Z,23.14
2018-07-30T10:40:39.710Z,23.12
2018-07-30T10:43:09.018Z,22.33
2018-07-30T10:45:38.396Z,22.63
2018-07-30T10:48:07.748Z,22.02
2018-07-30T10:50:36.987Z,22.04
2018-07-30T10:53:07.115Z,22.53
2018-07-30T10:55:36.714Z,23.23
2018-07-30T10:58:06.101Z,22.46
2018-07-30T11:00:35.409Z,23.37
2018-07-30T11:03:04.744Z,23.44
2018-07-30T11:05:34.079Z,22.93
2018-07-30T11:08:03.406Z,22.08
2018-07-30T11:10:32.753Z,21.52
2018-07-30T11:13:02.068Z,23.42
2018-07-30T11:15:31.406Z,24.08
2018-07-30T11:18:00.961Z,23.48
2018-07-30T11:20:30.243Z,24.20
2018-07-30T11:22:59.528Z,23.47
2018-07-30T11:25:28.932Z,23.50
2018-07-30T11:27:58.221Z,23.89
2018-07-30T11:30:27.447Z,24.26
2018-07-30T11:32:56.826Z,23.65
2018-07-30T11:35:26.088Z,24.16
2018-07-30T11:37:55.142Z,24.93
2018-07-30T11:40:24.512Z,24.87
2018-07-30T11:42:53.827Z,24.56
2018-07-30T11:45:23.163Z,24.18
2018-07-30T11:47:52.530Z,23.43
2018-07-30T11:50:21.833Z,24.15
2018-07-30T11:52:51.091Z,23.66
2018-07-30T11:55:20.432Z,23.93
2018-07-30T11:57:49.836Z,22.58
2018-07-30T12:00:19.104Z,22.78
2018-07-30T12:02:49.144Z,24.19
2018-07-30T12:05:18.440Z,24.19
2018-07-30T12:07:47.759Z,24.31
2018-07-30T12:10:17.084Z,24.09
2018-07-30T12:12:46.361Z,24.81
2018-07-30T12:15:15.693Z,24.18
2018-07-30T12:17:45.032Z,23.09
2018-07-30T12:20:14.401Z,24.16
2018-07-30T12:22:43.659Z,23.97
2018-07-30T12:25:13.246Z,23.01
2018-07-30T12:27:42.511Z,23.10
2018-07-30T12:30:11.947Z,23.50
2018-07-30T12:32:41.235Z,23.87
2018-07-30T12:35:10.536Z,23.59
2018-07-30T12:37:39.851Z,24.35
2018-07-30T12:40:09.196Z,24.26
2018-07-30T12:42:38.450Z,24.76
2018-07-30T12:45:07.784Z,24.99
2018-07-30T12:47:37.421Z,25.51
2018-07-30T12:50:06.843Z,24.76
2018-07-30T12:52:35.964Z,24.21
2018-07-30T12:55:05.340Z,24.00
2018-07-30T12:57:34.677Z,24.70
2018-07-30T13:00:03.703Z,24.33
2018-07-30T13:02:32.986Z,24.09
2018-07-30T13:05:02.397Z,23.69
2018-07-30T13:07:31.843Z,23.38
2018-07-30T13:10:01.686Z,23.89
2018-07-30T13:12:31.000Z,22.86
2018-07-30T13:15:00.283Z,22.05
2018-07-30T13:17:29.654Z,22.87
2018-07-30T13:19:58.953Z,22.70
2018-07-30T13:22:28.251Z,22.30
2018-07-30T13:24:57.569Z,23.45
2018-07-30T13:27:26.884Z,22.09
2018-07-30T13:29:56.179Z,22.50
2018-07-30T13:32:25.994Z,22.34
2018-07-30T13:34:55.327Z,23.68
2018-07-30T13:37:24.659Z,24.20
2018-07-30T13:39:54.472Z,24.19
2018-07-30T13:42:23.786Z,23.28
2018-07-30T13:44:53.198Z,22.05
2018-07-30T13:47:22.524Z,21.63
2018-07-30T13:49:51.882Z,21.52
2018-07-30T13:52:21.238Z,21.63
2018-07-30T13:54:50.817Z,22.39
2018-07-30T13:57:20.121Z,22.49
2018-07-30T13:59:49.441Z,21.34
2018-07-30T14:02:18.807Z,22.21
2018-07-30T14:04:48.084Z,22.79
2018-07-30T14:07:18.819Z,23.39
2018-07-30T14:09:48.127Z,22.74
2018-07-30T14:12:17.383Z,22.97
2018-07-30T14:14:46.652Z,22.92
2018-07-30T14:17:16.486Z,22.57
2018-07-30T14:19:45.568Z,22.71
2018-07-30T14:22:14.969Z,21.36
2018-07-30T14:24:44.258Z,21.18
2018-07-30T14:27:13.595Z,21.77
2018-07-30T14:29:42.895Z,21.44
2018-07-30T14:32:12.237Z,22.16
2018-07-30T14:34:41.526Z,21.22
2018-07-30T14:37:10.843Z,21.28
2018-07-30T14:39:40.400Z,21.14
2018-07-30T14:42:09.668Z,20.86
2018-07-30T14:44:38.931Z,21.67
2018-07-30T14:47:08.199Z,21.68
2018-07-30T14:49:37.466Z,22.28
2018-07-30T14:52:07.985Z,22.90
2018-07-30T14:54:37.302Z,23.12
2018-07-30T14:57:06.561Z,23.17
2018-07-30T14:59:35.918Z,23.20
2018-07-30T15:02:05.384Z,23.45
2018-07-30T15:04:34.658Z,23.30
2018-07-30T15:07:03.669Z,23.60
2018-07-30T15:09:33.418Z,24.08
2018-07-30T15:12:02.680Z,24.01
2018-07-30T15:14:31.996Z,23.47
2018-07-30T15:17:01.299Z,23.44
2018-07-30T15:19:30.598Z,22.58
2018-07-30T15:21:59.891Z,22.41
2018-07-30T15:24:29.334Z,23.11
2018-07-30T15:26:58.628Z,21.78
2018-07-30T15:29:27.991Z,22.16
2018-07-30T15:31:57.299Z,21.37
2018-07-30T15:34:26.571Z,21.68
2018-07-30T15:36:56.749Z,22.68
2018-07-30T15:39:26.122Z,22.96
2018-07-30T15:41:55.401Z,22.67
2018-07-30T15:44:24.464Z,22.33
2018-07-30T15:46:53.942Z,22.74
2018-07-30T15:49:23.208Z,21.26
2018-07-30T15:51:52.503Z,21.44
2018-07-30T15:54:21.823Z,22.35
2018-07-30T15:56:51.123Z,23.34
2018-07-30T15:59:20.418Z,23.70
2018-07-30T16:01:49.733Z,22.77
2018-07-30T16:04:19.085Z,22.38
2018-07-30T16:06:48.365Z,21.52
2018-07-30T16:09:17.952Z,22.54
2018-07-30T16:11:47.297Z,22.19
2018-07-30T16:14:16.924Z,22.08
2018-07-30T16:16:46.042Z,23.45
2018-07-30T16:19:15.428Z,22.60
2018-07-30T16:21:44.697Z,23.46
2018-07-30T16:24:14.042Z,23.43
2018-07-30T16:26:43.323Z,22.54
2018-07-30T16:29:12.765Z,22.82
2018-07-30T16:31:42.142Z,22.88
2018-07-30T16:34:11.451Z,23.22
2018-07-30T16:36:40.817Z,24.28
2018-07-30T16:39:11.167Z,23.09
2018-07-30T16:41:40.222Z,23.69
2018-07-30T16:44:09.590Z,23.54
2018-07-30T16:46:38.888Z,23.03
2018-07-30T16:49:08.225Z,23.22
2018-07-30T16:51:37.550Z,22.06
2018-07-30T16:54:07.428Z,23.05
2018-07-30T16:56:36.786Z,22.31
2018-07-30T16:59:06.114Z,23.22
2018-07-30T17:01:35.418Z,23.03
2018-07-30T17:04:04.799Z,23.27
2018-07-30T17:06:34.103Z,23.02
2018-07-30T17:09:03.579Z,22.42
2018-07-30T17:11:32.868Z,23.39
2018-07-30T17:14:02.260Z,23.44
2018-07-30T17:16:31.745Z,23.20
2018-07-30T17:19:01.095Z,23.51
2018-07-30T17:21:30.394Z,23.56
2018-07-30T17:23:59.687Z,23.65
2018-07-30T17:26:28.983Z,23.93
2018-07-30T17:28:58.580Z,24.49
2018-07-30T17:31:27.930Z,24.21
2018-07-30T17:33:57.028Z,23.56
2018-07-30T17:36:26.367Z,23.44
2018-07-30T17:38:55.780Z,24.12
2018-07-30T17:41:25.167Z,24.28
2018-07-30T17:43:54.512Z,24.48
2018-07-30T17:46:23.913Z,23.95
2018-07-30T17:48:53.866Z,24.16
2018-07-30T17:51:23.230Z,24.22
2018-07-30T17:53:52.511Z,24.30
2018-07-30T17:56:21.868Z,24.09
2018-07-30T17:58:51.474Z,24.28
2018-07-30T18:01:20.874Z,24.52
2018-07-30T18:03:50.168Z,24.88
2018-07-30T18:06:19.174Z,24.35
2018-07-30T18:08:48.211Z,25.51
2018-07-30T18:11:17.474Z,26.32
2018-07-30T18:13:46.809Z,25.25
2018-07-30T18:16:16.126Z,26.37
2018-07-30T18:18:45.542Z,25.54
2018-07-30T18:21:14.868Z,26.08
2018-07-30T18:23:44.669Z,27.01
2018-07-30T18:26:13.978Z,26.42
2018-07-30T18:28:43.013Z,26.05
2018-07-30T18:31:12.299Z,27.18
2018-07-30T18:33:41.682Z,26.66
2018-07-30T18:36:10.716Z,26.53
2018-07-30T18:38:40.047Z,27.32
2018-07-30T18:41:09.345Z,28.08
2018-07-30T18:43:38.697Z,28.40
2018-07-30T18:46:08.222Z,28.98
2018-07-30T18:48:37.543Z,28.68
2018-07-30T18:51:07.507Z,29.68
2018-07-30T18:53:36.963Z,28.81
2018-07-30T18:56:06.315Z,29.45
2018-07-30T18:58:35.630Z,29.35
2018-07-30T19:01:04.994Z,30.27
2018-07-30T19:03:34.249Z,30.36
2018-07-30T19:06:03.681Z,30.42
2018-07-30T19:08:33.447Z,31.31
2018-07-30T19:11:02.806Z,31.68
2018-07-30T19:13:32.102Z,32.00
2018-07-30T19:16:01.483Z,32.57
2018-07-30T19:18:30.741Z,32.22
2018-07-30T19:21:00.028Z,32.85
2018-07-30T19:23:29.375Z,32.19
2018-07-30T19:25:58.672Z,33.39
2018-07-30T19:28:27.980Z,32.62
2018-07-30T19:30:57.594Z,33.15
2018-07-30T19:33:26.911Z,34.10
2018-07-30T19:35:56.498Z,33.92
2018-07-30T19:38:25.791Z,34.31
2018-07-30T19:40:55.088Z,34.23
2018-07-30T19:43:24.539Z,34.31
2018-07-30T19:45:53.854Z,35.57
2018-07-30T19:48:23.211Z,35.42
2018-07-30T19:50:52.542Z,35.88
2018-07-30T19:53:22.346Z,35.56
2018-07-30T19:55:51.704Z,35.11
2018-07-30T19:58:21.470Z,34.68
2018-07-30T20:00:50.200Z,34.78
2018-07-30T20:03:19.466Z,35.12
2018-07-30T20:05:48.795Z,36.03
2018-07-30T20:08:17.947Z,36.24
2018-07-30T20:10:47.191Z,36.28
2018-07-30T20:13:16.302Z,35.77
2018-07-30T20:15:46.298Z,36.17
2018-07-30T20:18:15.640Z,36.45
2018-07-30T20:20:45.040Z,36.08
2018-07-30T20:23:14.360Z,35.88
2018-07-30T20:25:43.749Z,36.84
2018-07-30T20:28:13.071Z,36.93
2018-07-30T20:30:42.447Z,37.10
2018-07-30T20:33:11.788Z,37.13
2018-07-30T20:35:41.203Z,37.44
2018-07-30T20:38:10.635Z,36.57
2018-07-30T20:40:40.001Z,36.87
2018-07-30T20:43:09.402Z,38.03
2018-07-30T20:45:38.744Z,37.22
2018-07-30T20:48:08.203Z,38.04
2018-07-30T20:50:37.579Z,37.99
2018-07-30T20:53:06.864Z,38.53
2018-07-30T20:55:36.393Z,38.38
2018-07-30T20:58:05.668Z,38.02
2018-07-30T21:00:36.136Z,39.10
2018-07-30T21:03:05.403Z,39.30
2018-07-30T21:05:38.837Z,40.20
2018-07-30T21:08:08.408Z,39.48
2018-07-30T21:10:37.754Z,39.50
2018-07-30T21:13:07.106Z,39.66
2018-07-30T21:15:36.418Z,38.69
2018-07-30T21:18:05.712Z,39.30
2018-07-30T21:20:35.286Z,39.82
2018-07-30T21:23:04.596Z,40.27
2018-07-30T21:25:33.919Z,41.12
2018-07-30T21:28:03.246Z,41.68
2018-07-30T21:30:32.597Z,40.71
2018-07-30T21:33:01.638Z,40.68
2018-07-30T21:35:30.954Z,40.79
2018-07-30T21:38:00.227Z,40.41
2018-07-30T21:40:29.581Z,41.32
2018-07-30T21:42:59.383Z,40.61
2018-07-30T21:45:28.648Z,41.39
2018-07-30T21:47:57.974Z,41.17
2018-07-30T21:50:27.293Z,42.03
2018-07-30T21:52:56.716Z,42.18
2018-07-30T21:55:25.778Z,42.51
2018-07-30T21:57:55.046Z,42.80
2018-07-30T22:00:26.518Z,43.29
2018-07-30T22:02:58.011Z,41.10
2018-07-30T22:05:27.316Z,43.00
2018-07-30T22:07:56.778Z,43.21
2018-07-30T22:10:26.301Z,43.35
2018-07-30T22:12:56.110Z,42.46
2018-07-30T22:15:25.366Z,42.76
2018-07-30T22:17:54.691Z,43.15
2018-07-30T22:20:23.988Z,43.07
2018-07-30T22:22:53.270Z,42.44
2018-07-30T22:25:22.908Z,42.92
2018-07-30T22:27:52.288Z,42.91
2018-07-30T22:30:21.613Z,41.79
2018-07-30T22:32:50.935Z,42.31
2018-07-30T22:35:20.190Z,42.72
2018-07-30T22:37:49.450Z,42.84
2018-07-30T22:40:18.739Z,42.88
2018-07-30T22:42:47.988Z,42.20
2018-07-30T22:45:17.265Z,43.22
2018-07-30T22:47:46.976Z,42.51
2018-07-30T22:50:16.315Z,42.68
2018-07-30T22:52:45.694Z,42.60
2018-07-30T22:55:14.999Z,42.56
2018-07-30T22:57:44.347Z,42.35
2018-07-30T23:00:13.632Z,41.74
2018-07-30T23:02:42.977Z,42.40
2018-07-30T23:05:12.278Z,41.87
2018-07-30T23:07:41.638Z,42.67
2018-07-30T23:10:11.090Z,42.48
2018-07-30T23:12:40.409Z,43.12
2018-07-30T23:15:09.972Z,41.86
2018-07-30T23:17:39.243Z,42.69
2018-07-30T23:20:08.542Z,42.60
2018-07-30T23:22:37.863Z,42.39
2018-07-30T23:25:07.170Z,41.65
2018-07-30T23:27:36.424Z,41.67
2018-07-30T23:30:07.176Z,42.09
2018-07-30T23:32:36.887Z,41.49
2018-07-30T23:35:06.226Z,40.71
2018-07-30T23:37:35.476Z,40.64
2018-07-30T23:40:05.926Z,40.60
2018-07-30T23:42:35.278Z,40.16
2018-07-30T23:45:04.616Z,39.29
2018-07-30T23:47:33.963Z,39.61
2018-07-30T23:50:03.244Z,39.64
2018-07-30T23:52:32.525Z,39.02
2018-07-30T23:55:02.436Z,38.75
2018-07-30T23:57:31.687Z,39.39
